メインページ
METAR-TAF:

METAR-TAF

空港 :

マタベリ国際空港

イースター島, チリ

緯度: 27-09S, 経度: 109-25W, 海抜: 51m

現時点の気象観測

当レポートは28分前の05:00(UTC)に作成
南東の風 17kt
気温 18°C
湿度 52%
気圧 1029 hPa
視程10km以上
高度2000ftの雲は散在している

METAR: SCIP 200500Z 14017KT 9999 SCT020 18/08 Q1029 NOSIG

時間: 23:28 (05:28 UTC)

予報

当レポートは6時間42分前の22:46(UTC)に作成
予報は20日の 00時(UTC)から 21日の 00時(UTC)まで有効
南東の風 18kt
視程10km以上
高度2500ftの雲は散在している
高度5000ftの千切れ雲あり
20日の 11時(UTC)から 20日の 21時(UTC)まで一時的に
南東の風 13kt
視程: 7000m
高度1800ftの雲は散在している
高度3000ftの千切れ雲あり
弱いにわか雨
20日の 22時(UTC)から 21日の 00時(UTC)まで徐々に
南東の風 13kt
高度2000ftの雲は散在している
高度4000ftの雲は散在している

TAF: SCIP 192246Z 2000/2100 14018KT 9999 SCT025 BKN050 TN15/2010Z TX21/2020Z TEMPO 2011/2021 14013KT 7000 -SHRA SCT018 BKN030 BECMG 2022/2100 13013KT SCT020 SCT040

4,000以上の空港の気象観測と天気予報(METAR報とTAF報)

利用可能な観測所は地図上に黄色い丸と赤い丸で示す。

丸の上にカーソルを重ねると観測所名を参照できる。

次にクリックすると気象観測と天気予報を参照できる。

マップの切り替え:黒色「×」印の緑ボタンをクリックして拡大、「-」印の緑ボタンをクリックして縮小、緑色の三角印をクリックして隣りの地図に切り替え


METAR-TAF: